Time;durP1;ratioP1;P1;durP2;ratioP2;P2;SDS_P1;SDS_P2;PMS_P1;PMS_P2;Temp;Humidity;BMP_temperature;BMP_pressure;BME280_temperature;BME280_humidity;BME280_pressure;Samples;Min_cycle;Max_cycle;Signal;HPM_P1;HPM_P2
2024/03/19 05:31:48;;;;;;;0.10;0.10;;;12.40;73.20;;;;;;5344479;23;20049;-75
2024/03/19 05:34:14;;;;;;;0.10;0.10;;;12.40;73.00;;;;;;5036412;28;20029;-75
2024/03/19 05:36:40;;;;;;;0.10;0.10;;;12.40;72.50;;;;;;5026951;28;20029;-75
2024/03/19 05:39:09;;;;;;;0.00;0.00;;;12.40;72.50;;;;;;5037670;28;20025;-76
2024/03/19 05:41:36;;;;;;;0.10;0.10;;;12.40;72.50;;;;;;5047640;28;20460;-76
2024/03/19 05:44:02;;;;;;;0.05;0.05;;;12.40;72.20;;;;;;5032891;28;20026;-76
2024/03/19 05:46:28;;;;;;;0.10;0.10;;;12.40;72.30;;;;;;5018977;28;20528;-76
2024/03/19 05:48:53;;;;;;;0.10;0.10;;;12.40;72.70;;;;;;5022123;28;20088;-76
2024/03/19 05:51:19;;;;;;;0.10;0.10;;;12.30;72.70;;;;;;5034116;28;20069;-76
2024/03/19 05:53:46;;;;;;;0.10;0.10;;;12.40;72.40;;;;;;5017400;28;20069;-76
2024/03/19 05:56:12;;;;;;;0.10;0.10;;;12.30;72.70;;;;;;5031672;28;20028;-76
2024/03/19 05:58:38;;;;;;;0.00;0.00;;;12.30;72.50;;;;;;5037101;28;20056;-76
2024/03/19 06:01:04;;;;;;;0.00;0.00;;;12.30;71.80;;;;;;5033862;28;20394;-77
2024/03/19 06:03:33;;;;;;;0.00;0.00;;;12.40;71.90;;;;;;5030968;28;20026;-78
2024/03/19 06:06:03;;;;;;;0.00;0.00;;;12.40;71.80;;;;;;5027846;28;20022;-77
2024/03/19 06:08:29;;;;;;;0.10;0.10;;;12.40;71.80;;;;;;5036388;28;20029;-77
2024/03/19 06:10:55;;;;;;;0.10;0.10;;;12.40;71.60;;;;;;5038223;28;20094;-78
2024/03/19 06:13:21;;;;;;;0.10;0.10;;;12.40;71.80;;;;;;5019710;28;20088;-78
2024/03/19 06:15:47;;;;;;;0.10;0.10;;;12.50;71.90;;;;;;5018338;28;20041;-79
2024/03/19 06:18:13;;;;;;;0.10;0.10;;;12.40;71.90;;;;;;5017304;28;20033;-80
2024/03/19 06:20:39;;;;;;;0.00;0.00;;;12.50;71.80;;;;;;5018392;28;20058;-77
2024/03/19 06:23:04;;;;;;;0.10;0.10;;;12.60;72.10;;;;;;5018116;28;20025;-76
2024/03/19 06:25:30;;;;;;;0.10;0.10;;;12.50;72.10;;;;;;5026126;28;20013;-76
2024/03/19 06:27:56;;;;;;;0.00;0.00;;;12.50;71.90;;;;;;5033464;28;20025;-78
2024/03/19 06:30:21;;;;;;;0.10;0.10;;;12.50;72.00;;;;;;5021662;28;20081;-79
2024/03/19 06:32:47;;;;;;;0.10;0.10;;;12.40;72.00;;;;;;5024672;28;20053;-80
2024/03/19 06:35:14;;;;;;;0.10;0.10;;;12.40;71.90;;;;;;5036732;28;20022;-80
2024/03/19 06:37:41;;;;;;;0.10;0.10;;;12.50;71.80;;;;;;5036154;28;20037;-79
2024/03/19 06:40:10;;;;;;;0.10;0.10;;;12.60;71.80;;;;;;5035253;28;20029;-80
2024/03/19 06:42:38;;;;;;;0.10;0.10;;;12.50;72.00;;;;;;5036908;28;20064;-79
2024/03/19 06:45:04;;;;;;;0.10;0.10;;;12.40;70.80;;;;;;5038085;28;20057;-80
2024/03/19 06:47:30;;;;;;;0.10;0.10;;;12.50;71.50;;;;;;5031349;28;20389;-77
2024/03/19 06:49:56;;;;;;;0.10;0.10;;;12.50;71.80;;;;;;5026326;28;20055;-76
2024/03/19 06:52:21;;;;;;;0.10;0.10;;;12.50;71.90;;;;;;5037163;28;20101;-77
2024/03/19 06:54:47;;;;;;;0.00;0.00;;;12.40;72.10;;;;;;5036257;28;20033;-77
2024/03/19 06:57:13;;;;;;;0.10;0.10;;;12.50;72.20;;;;;;5033506;28;20440;-76
2024/03/19 06:59:38;;;;;;;0.10;0.10;;;12.60;72.40;;;;;;5017342;28;20549;-77
2024/03/19 07:02:07;;;;;;;0.10;0.10;;;12.50;71.90;;;;;;5017429;28;20425;-77
2024/03/19 07:04:33;;;;;;;0.10;0.10;;;12.50;71.70;;;;;;5017178;28;20494;-76
2024/03/19 07:06:59;;;;;;;0.10;0.10;;;12.50;71.90;;;;;;5016441;28;20397;-76
2024/03/19 07:09:25;;;;;;;0.10;0.10;;;12.60;72.40;;;;;;5016335;28;20072;-76
2024/03/19 07:11:50;;;;;;;0.10;0.10;;;12.60;72.60;;;;;;5016279;28;20030;-76
2024/03/19 07:14:16;;;;;;;0.10;0.10;;;12.60;72.30;;;;;;5017162;28;20026;-76
2024/03/19 07:16:42;;;;;;;0.10;0.10;;;12.70;72.30;;;;;;5031800;28;20064;-76
2024/03/19 07:19:10;;;;;;;0.10;0.10;;;12.70;71.60;;;;;;5036716;28;20565;-77
2024/03/19 07:21:36;;;;;;;0.10;0.10;;;12.70;71.50;;;;;;5027260;28;20026;-77
2024/03/19 07:24:01;;;;;;;0.10;0.10;;;12.70;71.70;;;;;;5017215;28;20041;-77
2024/03/19 07:26:27;;;;;;;0.10;0.10;;;12.80;72.10;;;;;;5015716;28;20022;-77
2024/03/19 07:28:53;;;;;;;0.10;0.10;;;12.80;71.60;;;;;;5017053;28;20115;-77
2024/03/19 07:31:18;;;;;;;0.10;0.10;;;12.80;71.50;;;;;;5016942;28;20117;-77
2024/03/19 07:33:44;;;;;;;0.10;0.10;;;12.80;72.00;;;;;;5031706;28;20026;-77
2024/03/19 07:36:10;;;;;;;0.00;0.00;;;12.80;71.70;;;;;;5037092;28;20024;-77
2024/03/19 07:38:37;;;;;;;0.10;0.10;;;12.90;71.60;;;;;;5034178;28;20029;-77
2024/03/19 07:41:02;;;;;;;0.10;0.10;;;13.00;71.40;;;;;;5036852;28;20104;-77
2024/03/19 07:43:29;;;;;;;0.10;0.10;;;13.10;71.40;;;;;;5036320;28;20068;-77
2024/03/19 07:45:55;;;;;;;0.10;0.10;;;13.20;71.40;;;;;;5036478;28;20021;-76
2024/03/19 07:48:22;;;;;;;0.10;0.10;;;13.30;70.80;;;;;;5021986;28;20030;-77
2024/03/19 07:50:47;;;;;;;0.10;0.10;;;13.30;70.30;;;;;;5016745;28;20033;-77
2024/03/19 07:53:14;;;;;;;0.10;0.10;;;13.40;70.70;;;;;;5022112;28;20021;-77
2024/03/19 07:55:39;;;;;;;0.10;0.10;;;13.50;70.90;;;;;;5036432;28;20108;-77
2024/03/19 07:58:05;;;;;;;0.10;0.10;;;13.50;70.60;;;;;;5030613;28;20069;-77
2024/03/19 08:00:32;;;;;;;0.10;0.10;;;13.60;70.10;;;;;;5015294;28;20033;-76
2024/03/19 08:02:57;;;;;;;0.10;0.10;;;13.70;69.80;;;;;;5025066;28;20108;-77
2024/03/19 08:05:23;;;;;;;0.10;0.10;;;13.70;69.80;;;;;;5036168;28;20053;-77
2024/03/19 08:07:49;;;;;;;0.10;0.10;;;13.80;68.70;;;;;;5017671;28;20547;-77
2024/03/19 08:10:14;;;;;;;0.10;0.10;;;13.90;68.50;;;;;;5016690;28;20022;-77
2024/03/19 08:12:40;;;;;;;0.10;0.10;;;13.90;68.70;;;;;;5017360;28;20034;-77
2024/03/19 08:15:06;;;;;;;0.10;0.10;;;14.00;68.50;;;;;;5017439;28;20100;-77
2024/03/19 08:17:32;;;;;;;0.10;0.10;;;14.00;68.30;;;;;;5016835;28;20022;-77
2024/03/19 08:19:59;;;;;;;0.10;0.10;;;14.10;68.10;;;;;;5016372;28;20030;-77
2024/03/19 08:22:25;;;;;;;0.10;0.10;;;14.20;68.10;;;;;;5023370;28;20038;-76
2024/03/19 08:24:52;;;;;;;0.10;0.10;;;14.30;68.30;;;;;;5036266;28;20444;-76
2024/03/19 08:27:19;;;;;;;0.10;0.10;;;14.50;67.70;;;;;;5022744;28;20409;-76
2024/03/19 08:29:44;;;;;;;0.10;0.10;;;14.60;67.10;;;;;;5013989;28;20026;-76
2024/03/19 08:32:10;;;;;;;0.10;0.10;;;14.70;67.70;;;;;;5020042;28;20081;-76
2024/03/19 08:34:36;;;;;;;0.10;0.10;;;14.80;67.30;;;;;;5036235;28;20087;-76
2024/03/19 08:37:02;;;;;;;0.10;0.10;;;14.80;66.70;;;;;;5028858;28;20057;-76
2024/03/19 08:39:28;;;;;;;0.10;0.10;;;14.80;66.00;;;;;;5025952;28;20026;-76
2024/03/19 08:41:54;;;;;;;0.10;0.10;;;14.80;65.30;;;;;;5035647;28;20033;-77
2024/03/19 08:44:20;;;;;;;0.10;0.10;;;15.00;65.60;;;;;;5035810;28;20028;-76
2024/03/19 08:46:46;;;;;;;0.20;0.20;;;15.20;64.90;;;;;;5030445;28;20053;-77
2024/03/19 08:49:12;;;;;;;0.20;0.20;;;15.10;65.60;;;;;;5016306;28;20080;-76
2024/03/19 08:51:37;;;;;;;0.10;0.10;;;15.30;64.90;;;;;;5016061;28;20034;-76
2024/03/19 08:54:04;;;;;;;0.10;0.10;;;15.50;64.90;;;;;;5015912;28;20029;-77
2024/03/19 08:56:32;;;;;;;0.10;0.10;;;15.60;64.70;;;;;;5031303;28;20026;-76
2024/03/19 08:58:58;;;;;;;0.10;0.10;;;15.70;64.00;;;;;;5015842;28;20113;-76
2024/03/19 09:01:24;;;;;;;0.10;0.10;;;15.80;63.50;;;;;;5016003;28;20053;-76
2024/03/19 09:03:51;;;;;;;0.10;0.10;;;15.70;63.30;;;;;;5017515;28;20026;-76
2024/03/19 09:06:18;;;;;;;0.10;0.10;;;15.70;63.50;;;;;;5019992;28;20029;-76
2024/03/19 09:08:44;;;;;;;0.10;0.10;;;15.50;63.60;;;;;;5029774;28;20101;-76
2024/03/19 09:11:10;;;;;;;0.10;0.10;;;15.50;64.10;;;;;;5039432;28;20076;-76
2024/03/19 09:13:36;;;;;;;0.15;0.15;;;15.60;64.20;;;;;;5038119;28;20485;-76
2024/03/19 09:16:02;;;;;;;0.10;0.10;;;15.70;64.30;;;;;;5037936;28;20100;-76
2024/03/19 09:18:27;;;;;;;0.10;0.10;;;15.80;63.70;;;;;;5025476;28;20033;-77
2024/03/19 09:20:53;;;;;;;0.10;0.10;;;15.60;62.20;;;;;;5019088;28;20028;-76
2024/03/19 09:23:19;;;;;;;0.10;0.10;;;15.50;63.10;;;;;;5019656;28;20508;-76
2024/03/19 09:25:45;;;;;;;0.10;0.10;;;15.70;63.90;;;;;;5018443;28;20026;-76
2024/03/19 09:28:11;;;;;;;0.10;0.10;;;15.80;63.70;;;;;;5032202;28;20030;-76
2024/03/19 09:30:37;;;;;;;0.10;0.10;;;15.70;62.70;;;;;;5037541;28;20496;-76
2024/03/19 09:33:03;;;;;;;0.10;0.10;;;15.80;62.90;;;;;;5039206;28;20014;-76
2024/03/19 09:35:29;;;;;;;0.10;0.10;;;15.90;62.10;;;;;;5031409;28;20035;-76
2024/03/19 09:37:55;;;;;;;0.10;0.10;;;15.80;62.40;;;;;;5018011;28;20026;-76
2024/03/19 09:40:22;;;;;;;0.10;0.10;;;15.80;62.50;;;;;;5032219;28;20022;-76
2024/03/19 09:42:47;;;;;;;0.10;0.10;;;15.80;62.20;;;;;;5034231;28;20088;-76
2024/03/19 09:45:27;;;;;;;0.20;0.20;;;15.90;62.00;;;;;;5034451;28;20036;-76
2024/03/19 09:47:58;;;;;;;0.10;0.10;;;16.60;61.40;;;;;;5019092;28;20105;-76
2024/03/19 09:50:26;;;;;;;0.10;0.10;;;16.60;61.10;;;;;;5028293;28;20108;-76
2024/03/19 09:52:55;;;;;;;0.10;0.10;;;16.40;60.40;;;;;;5039085;28;20109;-76
2024/03/19 09:55:22;;;;;;;0.25;0.25;;;16.30;61.10;;;;;;5019788;28;20026;-77
2024/03/19 09:57:51;;;;;;;0.20;0.20;;;16.40;60.80;;;;;;5018839;28;20474;-77
2024/03/19 10:00:23;;;;;;;0.10;0.10;;;17.30;59.10;;;;;;5018677;28;20037;-76
2024/03/19 10:02:50;;;;;;;0.10;0.10;;;17.20;58.80;;;;;;5041876;28;20029;-76
2024/03/19 10:05:15;;;;;;;0.10;0.10;;;17.00;58.80;;;;;;5038458;28;20035;-77
2024/03/19 10:07:41;;;;;;;0.10;0.10;;;17.00;58.50;;;;;;5037241;28;20021;-77
2024/03/19 10:10:07;;;;;;;0.10;0.10;;;17.00;59.60;;;;;;5034205;28;20018;-76
2024/03/19 10:12:33;;;;;;;0.10;0.10;;;16.90;59.40;;;;;;5018658;28;20089;-77
2024/03/19 10:15:07;;;;;;;0.10;0.10;;;16.80;59.30;;;;;;5020319;28;20536;-77
2024/03/19 10:17:32;;;;;;;0.10;0.10;;;16.80;59.10;;;;;;5017404;28;20030;-76
2024/03/19 10:19:58;;;;;;;0.10;0.10;;;16.80;58.40;;;;;;5018282;28;20109;-76
2024/03/19 10:22:26;;;;;;;0.10;0.10;;;16.80;59.10;;;;;;5018279;28;20120;-76
2024/03/19 10:24:51;;;;;;;0.10;0.10;;;16.80;59.60;;;;;;5017100;28;20041;-76
2024/03/19 10:27:18;;;;;;;0.10;0.10;;;16.80;60.00;;;;;;5018116;28;20026;-76
2024/03/19 10:29:45;;;;;;;0.10;0.10;;;16.60;60.10;;;;;;5018210;28;20213;-77
2024/03/19 10:32:11;;;;;;;0.10;0.10;;;16.60;60.10;;;;;;5018806;28;20418;-77
2024/03/19 10:34:37;;;;;;;0.10;0.10;;;16.70;60.70;;;;;;5034122;28;20080;-76
2024/03/19 10:37:04;;;;;;;0.10;0.10;;;16.80;59.70;;;;;;5018383;28;20025;-76
2024/03/19 10:39:33;;;;;;;0.10;0.10;;;16.80;59.60;;;;;;5028993;28;20501;-76
2024/03/19 10:42:03;;;;;;;0.10;0.10;;;16.90;59.10;;;;;;5037554;28;20027;-76
2024/03/19 10:44:35;;;;;;;0.13;0.13;;;16.80;60.10;;;;;;5017734;28;20026;-76
2024/03/19 10:47:01;;;;;;;0.10;0.10;;;16.70;59.90;;;;;;5016586;28;20033;-76
2024/03/19 10:49:27;;;;;;;0.10;0.10;;;16.80;59.70;;;;;;5018205;28;20033;-76
2024/03/19 10:51:59;;;;;;;0.10;0.10;;;16.80;59.80;;;;;;5017890;28;20486;-76
2024/03/19 10:54:28;;;;;;;0.10;0.10;;;16.80;60.30;;;;;;5017668;28;20494;-76
2024/03/19 10:56:55;;;;;;;0.10;0.10;;;16.80;59.70;;;;;;5017627;28;20111;-77
2024/03/19 10:59:21;;;;;;;0.10;0.10;;;16.90;59.90;;;;;;5017677;28;20030;-76
2024/03/19 11:01:52;;;;;;;0.10;0.10;;;17.00;59.40;;;;;;5017402;28;20442;-76
2024/03/19 11:04:27;;;;;;;0.10;0.10;;;16.90;59.10;;;;;;5030041;28;20026;-76
2024/03/19 11:06:56;;;;;;;0.10;0.10;;;16.80;59.80;;;;;;5017321;28;20049;-76
2024/03/19 11:09:25;;;;;;;0.10;0.10;;;16.80;60.30;;;;;;5017686;28;20033;-76
2024/03/19 11:11:52;;;;;;;0.10;0.10;;;17.00;60.20;;;;;;5026667;28;20075;-76
2024/03/19 11:14:19;;;;;;;0.10;0.10;;;17.20;59.70;;;;;;5035969;28;20491;-76
2024/03/19 11:16:47;;;;;;;0.10;0.10;;;17.30;59.50;;;;;;5032869;28;20021;-76
2024/03/19 11:19:28;;;;;;;0.10;0.10;;;17.40;58.40;;;;;;5028075;28;20025;-76
2024/03/19 11:21:56;;;;;;;0.10;0.10;;;17.30;57.50;;;;;;5021965;28;20037;-76
2024/03/19 11:24:40;;;;;;;0.10;0.10;;;17.30;57.60;;;;;;5035698;28;20029;-76
2024/03/19 11:27:05;;;;;;;;;;;17.30;58.50;;;;;;5036693;28;20037;-76
2024/03/19 11:29:35;;;;;;;0.10;0.10;;;17.50;58.60;;;;;;5016798;28;20269;-76
2024/03/19 11:32:01;;;;;;;0.15;0.15;;;17.60;58.10;;;;;;5032631;28;20057;-76
2024/03/19 11:34:28;;;;;;;0.20;0.20;;;17.80;57.30;;;;;;5019798;28;20070;-77
2024/03/19 11:36:55;;;;;;;0.10;0.10;;;17.80;56.20;;;;;;5015847;28;20037;-77
2024/03/19 11:39:22;;;;;;;0.10;0.10;;;17.80;56.80;;;;;;5025688;28;20032;-76
2024/03/19 11:41:48;;;;;;;0.10;0.10;;;17.80;57.00;;;;;;5036538;28;20032;-76
2024/03/19 11:44:19;;;;;;;0.10;0.10;;;17.80;57.60;;;;;;5022267;28;20029;-76
2024/03/19 11:46:50;;;;;;;0.10;0.10;;;17.80;57.60;;;;;;5036754;28;20026;-77
2024/03/19 11:49:29;;;;;;;0.00;0.00;;;17.90;57.70;;;;;;5035382;28;20385;-76
2024/03/19 11:51:59;;;;;;;0.10;0.10;;;18.00;57.70;;;;;;5033160;28;20072;-76
2024/03/19 11:54:31;;;;;;;0.10;0.10;;;17.90;57.60;;;;;;5032094;28;20041;-77
2024/03/19 11:56:57;;;;;;;0.10;0.10;;;18.10;56.90;;;;;;5016933;28;20044;-76
2024/03/19 11:59:24;;;;;;;0.10;0.10;;;18.30;57.00;;;;;;5016539;28;20038;-76
2024/03/19 12:01:52;;;;;;;0.10;0.10;;;18.20;55.90;;;;;;5015234;28;20525;-77
2024/03/19 12:04:20;;;;;;;0.10;0.10;;;18.30;56.00;;;;;;5018423;28;20021;-77
2024/03/19 12:06:47;;;;;;;0.10;0.10;;;18.30;55.50;;;;;;5016734;28;20053;-76
2024/03/19 12:09:13;;;;;;;0.10;0.10;;;18.30;55.70;;;;;;5016700;28;20033;-76
2024/03/19 12:11:40;;;;;;;0.10;0.10;;;18.10;56.00;;;;;;5015736;28;20037;-76
2024/03/19 12:14:16;;;;;;;0.10;0.10;;;18.00;57.30;;;;;;5018653;28;20022;-76
2024/03/19 12:16:43;;;;;;;0.10;0.10;;;18.20;56.50;;;;;;5016510;28;20053;-76
2024/03/19 12:19:13;;;;;;;0.10;0.10;;;18.30;56.80;;;;;;5016540;28;20026;-76
2024/03/19 12:21:43;;;;;;;0.10;0.10;;;18.60;55.70;;;;;;5016429;28;20018;-76
2024/03/19 12:24:11;;;;;;;0.10;0.10;;;18.60;55.30;;;;;;5016883;28;20073;-77
2024/03/19 12:26:43;;;;;;;0.10;0.10;;;18.50;53.90;;;;;;5018661;28;20452;-76
2024/03/19 12:29:13;;;;;;;0.10;0.10;;;18.30;54.20;;;;;;5031703;28;20054;-76
2024/03/19 12:31:48;;;;;;;0.10;0.10;;;18.10;55.80;;;;;;5016459;28;20485;-76
2024/03/19 12:37:09;;;;;;;0.10;0.10;;;18.00;55.90;;;;;;5036024;28;20067;-76
2024/03/19 12:39:35;;;;;;;0.10;0.10;;;18.00;55.80;;;;;;5036433;28;20030;-76
2024/03/19 12:42:03;;;;;;;0.10;0.10;;;18.00;56.10;;;;;;5039884;28;20029;-77
2024/03/19 12:44:29;;;;;;;0.10;0.10;;;18.10;57.30;;;;;;5024457;28;20018;-76
2024/03/19 12:46:55;;;;;;;0.10;0.10;;;18.30;56.90;;;;;;5020119;28;20018;-76
2024/03/19 12:49:24;;;;;;;0.20;0.20;;;18.40;56.50;;;;;;5020292;28;20520;-76
2024/03/19 12:51:50;;;;;;;0.10;0.10;;;18.60;55.60;;;;;;5020210;28;20053;-76
2024/03/19 12:54:16;;;;;;;0.10;0.10;;;18.80;54.70;;;;;;5020201;28;20033;-76
2024/03/19 12:56:42;;;;;;;0.10;0.10;;;18.60;54.60;;;;;;5019666;28;20034;-76
2024/03/19 12:59:07;;;;;;;0.10;0.10;;;18.40;55.00;;;;;;5027098;28;20037;-76
2024/03/19 13:01:33;;;;;;;0.10;0.10;;;18.60;56.30;;;;;;5019774;28;20022;-77
2024/03/19 13:03:58;;;;;;;0.10;0.10;;;18.60;55.70;;;;;;5028843;28;20030;-76
2024/03/19 13:06:24;;;;;;;0.10;0.10;;;18.20;53.90;;;;;;5018760;28;20101;-76
2024/03/19 13:08:50;;;;;;;0.10;0.10;;;17.90;55.10;;;;;;5017986;28;20029;-77
2024/03/19 13:11:16;;;;;;;0.10;0.10;;;18.00;56.80;;;;;;5019952;28;20080;-77
2024/03/19 13:13:42;;;;;;;0.10;0.10;;;18.30;56.60;;;;;;5019532;28;20036;-76
2024/03/19 13:16:08;;;;;;;0.10;0.10;;;18.40;55.90;;;;;;5034826;28;20109;-77
2024/03/19 13:18:34;;;;;;;0.10;0.10;;;18.50;55.20;;;;;;5034939;28;20030;-76
2024/03/19 13:20:59;;;;;;;0.10;0.10;;;18.30;54.60;;;;;;5019544;28;20052;-76
2024/03/19 13:23:25;;;;;;;0.10;0.10;;;18.40;56.50;;;;;;5034478;28;20025;-77
2024/03/19 13:25:51;;;;;;;0.10;0.10;;;18.60;56.30;;;;;;5019633;28;20026;-76
2024/03/19 13:28:16;;;;;;;0.10;0.10;;;18.40;55.10;;;;;;5050954;28;20053;-76
2024/03/19 13:30:42;;;;;;;0.10;0.10;;;18.30;56.20;;;;;;5018934;28;20516;-76
2024/03/19 13:33:08;;;;;;;0.10;0.10;;;18.30;56.50;;;;;;5029261;28;20032;-76
2024/03/19 13:35:33;;;;;;;0.10;0.10;;;18.30;55.90;;;;;;5039744;28;20456;-76
2024/03/19 13:37:59;;;;;;;0.10;0.10;;;18.50;55.70;;;;;;5038106;28;20378;-77
2024/03/19 13:40:25;;;;;;;0.10;0.10;;;18.50;55.40;;;;;;5038841;28;20041;-77
2024/03/19 13:42:51;;;;;;;0.10;0.10;;;18.50;55.40;;;;;;5033968;28;20026;-77
2024/03/19 13:45:17;;;;;;;0.10;0.10;;;18.50;56.00;;;;;;5038649;28;20025;-76
2024/03/19 13:47:42;;;;;;;0.10;0.10;;;18.60;56.20;;;;;;5038912;28;20082;-76
2024/03/19 13:50:09;;;;;;;0.10;0.10;;;18.50;55.30;;;;;;5038237;28;20026;-76
2024/03/19 13:52:37;;;;;;;0.10;0.10;;;18.40;54.80;;;;;;5031365;28;20131;-76
2024/03/19 13:55:03;;;;;;;0.10;0.10;;;18.30;55.70;;;;;;5018824;28;20022;-76
2024/03/19 13:57:28;;;;;;;0.10;0.10;;;18.20;56.20;;;;;;5017350;28;20048;-76
2024/03/19 13:59:54;;;;;;;0.10;0.10;;;18.00;56.40;;;;;;5018898;28;20022;-77
2024/03/19 14:02:20;;;;;;;0.10;0.10;;;18.00;56.70;;;;;;5034542;28;20026;-76
2024/03/19 14:04:46;;;;;;;0.10;0.10;;;18.00;57.40;;;;;;5029824;28;20018;-76
2024/03/19 14:07:12;;;;;;;0.10;0.10;;;17.90;56.30;;;;;;5018777;28;20033;-77
2024/03/19 14:09:41;;;;;;;0.10;0.10;;;18.00;57.20;;;;;;5018149;28;20421;-76
2024/03/19 14:12:07;;;;;;;0.10;0.10;;;18.20;56.90;;;;;;5018477;28;20037;-77
2024/03/19 14:14:36;;;;;;;0.10;0.10;;;18.20;56.70;;;;;;5018348;28;20021;-77
2024/03/19 14:17:01;;;;;;;0.10;0.10;;;18.20;57.10;;;;;;5018549;28;20405;-76
2024/03/19 14:19:27;;;;;;;0.10;0.10;;;18.40;57.10;;;;;;5020105;28;20030;-77
2024/03/19 14:21:56;;;;;;;0.10;0.10;;;18.30;56.10;;;;;;5018643;28;20396;-76
2024/03/19 14:24:23;;;;;;;0.10;0.10;;;18.20;56.80;;;;;;5017948;28;20061;-77
2024/03/19 14:26:49;;;;;;;0.10;0.10;;;18.00;57.30;;;;;;5018595;28;20030;-76
2024/03/19 14:29:15;;;;;;;0.10;0.10;;;18.10;57.00;;;;;;5018180;28;20028;-76
2024/03/19 14:31:40;;;;;;;0.10;0.10;;;18.00;56.50;;;;;;5020708;28;20057;-77
2024/03/19 14:34:06;;;;;;;0.10;0.10;;;17.90;57.50;;;;;;5037716;28;20025;-76
2024/03/19 14:36:32;;;;;;;0.10;0.10;;;18.00;57.20;;;;;;5038016;28;20034;-76
2024/03/19 14:38:57;;;;;;;0.10;0.10;;;18.20;57.30;;;;;;5037518;28;20029;-76
2024/03/19 14:41:23;;;;;;;0.10;0.10;;;18.30;56.40;;;;;;5026561;28;20030;-77
2024/03/19 14:43:49;;;;;;;0.10;0.10;;;18.30;57.50;;;;;;5034092;28;20026;-76
2024/03/19 14:46:18;;;;;;;0.10;0.10;;;18.30;57.60;;;;;;5037765;28;20087;-77
2024/03/19 14:48:48;;;;;;;0.10;0.10;;;18.10;58.20;;;;;;5036399;28;20452;-76
2024/03/19 14:51:14;;;;;;;0.10;0.10;;;18.00;57.90;;;;;;5034986;28;20029;-77
2024/03/19 14:53:41;;;;;;;0.10;0.10;;;17.90;58.90;;;;;;5016556;28;20036;-77
2024/03/19 14:56:07;;;;;;;0.10;0.10;;;17.80;57.80;;;;;;5016769;28;20030;-76
2024/03/19 14:58:33;;;;;;;0.10;0.10;;;17.80;57.40;;;;;;5017478;28;20076;-76
2024/03/19 15:00:59;;;;;;;0.10;0.10;;;17.80;58.20;;;;;;5017616;28;20080;-76
2024/03/19 15:03:25;;;;;;;0.10;0.10;;;17.70;58.50;;;;;;5017467;28;20053;-76
2024/03/19 15:05:51;;;;;;;0.08;0.08;;;17.80;58.50;;;;;;5016331;28;20062;-76
2024/03/19 15:08:18;;;;;;;0.10;0.10;;;17.90;58.10;;;;;;5017779;28;20030;-76
2024/03/19 15:10:43;;;;;;;0.10;0.10;;;17.90;58.20;;;;;;5017364;28;20022;-76
2024/03/19 15:13:10;;;;;;;0.10;0.10;;;17.90;57.70;;;;;;5015836;28;20491;-77
2024/03/19 15:15:39;;;;;;;0.10;0.10;;;17.90;57.80;;;;;;5029698;28;20057;-77
2024/03/19 15:18:07;;;;;;;0.10;0.10;;;17.90;59.10;;;;;;5037124;28;20084;-76
2024/03/19 15:20:34;;;;;;;0.10;0.10;;;18.10;58.30;;;;;;5023947;28;20120;-77
2024/03/19 15:23:00;;;;;;;0.10;0.10;;;18.10;58.00;;;;;;5033550;28;20025;-76
2024/03/19 15:25:26;;;;;;;0.10;0.10;;;18.00;57.60;;;;;;5036883;28;20025;-77
2024/03/19 15:27:55;;;;;;;0.10;0.10;;;18.20;58.30;;;;;;5033599;28;20079;-76
2024/03/19 15:30:21;;;;;;;0.10;0.10;;;18.30;58.00;;;;;;5015601;28;20057;-76
2024/03/19 15:32:48;;;;;;;0.10;0.10;;;18.30;58.00;;;;;;5033516;28;20049;-76
2024/03/19 15:35:15;;;;;;;0.10;0.10;;;18.30;57.50;;;;;;5023772;28;20038;-76
2024/03/19 15:37:40;;;;;;;0.10;0.10;;;18.20;57.80;;;;;;5036702;28;20033;-76
2024/03/19 15:40:10;;;;;;;0.10;0.10;;;18.20;58.10;;;;;;5031001;28;20022;-77
2024/03/19 15:42:38;;;;;;;0.10;0.10;;;18.10;58.20;;;;;;5015883;28;20046;-76
2024/03/19 15:45:08;;;;;;;0.10;0.10;;;18.20;58.40;;;;;;5015638;28;20030;-76
2024/03/19 15:47:35;;;;;;;0.10;0.10;;;18.30;58.30;;;;;;5016748;28;20458;-77
2024/03/19 15:50:00;;;;;;;0.10;0.10;;;18.40;57.70;;;;;;5016727;28;20022;-77
2024/03/19 15:52:26;;;;;;;0.10;0.10;;;18.40;58.10;;;;;;5023663;28;20056;-77
2024/03/19 15:54:52;;;;;;;0.10;0.10;;;18.30;57.60;;;;;;5035303;28;20030;-76
2024/03/19 15:57:18;;;;;;;0.10;0.10;;;18.20;57.50;;;;;;5036434;28;20034;-76
2024/03/19 15:59:44;;;;;;;0.10;0.10;;;18.10;58.00;;;;;;5028942;28;20071;-76
2024/03/19 16:02:10;;;;;;;0.10;0.10;;;17.90;58.20;;;;;;5018618;28;20032;-77
2024/03/19 16:04:35;;;;;;;0.10;0.10;;;17.90;58.90;;;;;;5035747;28;20128;-77
2024/03/19 16:07:01;;;;;;;0.10;0.10;;;17.90;58.30;;;;;;5031645;28;20374;-77
2024/03/19 16:09:27;;;;;;;0.10;0.10;;;17.90;58.10;;;;;;5025249;28;20039;-77
2024/03/19 16:11:53;;;;;;;0.10;0.10;;;18.00;58.20;;;;;;5019861;28;20109;-77
2024/03/19 16:14:19;;;;;;;0.10;0.10;;;18.10;57.20;;;;;;5014653;28;20030;-77
2024/03/19 16:16:44;;;;;;;0.10;0.10;;;18.10;57.10;;;;;;5016575;28;20056;-77
2024/03/19 16:19:10;;;;;;;0.10;0.10;;;18.20;57.60;;;;;;5016196;28;20524;-77
2024/03/19 16:21:35;;;;;;;0.00;0.00;;;18.00;57.70;;;;;;5016539;28;20607;-76
2024/03/19 16:24:02;;;;;;;0.10;0.10;;;17.90;57.70;;;;;;5016405;28;20033;-76
2024/03/19 16:26:28;;;;;;;0.10;0.10;;;17.90;58.80;;;;;;5016216;28;20120;-76
2024/03/19 16:28:54;;;;;;;0.10;0.10;;;17.80;58.70;;;;;;5016406;28;20058;-76
2024/03/19 16:31:19;;;;;;;0.10;0.10;;;17.70;59.00;;;;;;5014634;28;20050;-76
2024/03/19 16:33:45;;;;;;;0.10;0.10;;;17.60;59.60;;;;;;5035474;28;20132;-77
2024/03/19 16:36:11;;;;;;;0.10;0.10;;;17.50;59.60;;;;;;5036099;28;20029;-76
2024/03/19 16:38:37;;;;;;;0.10;0.10;;;17.50;59.20;;;;;;5028979;28;20022;-77
2024/03/19 16:41:03;;;;;;;0.10;0.10;;;17.50;59.30;;;;;;5028654;28;20029;-76
2024/03/19 16:43:29;;;;;;;0.10;0.10;;;17.50;59.40;;;;;;5034985;28;20408;-81
2024/03/19 16:45:55;;;;;;;0.10;0.10;;;17.50;59.70;;;;;;5035474;28;20052;-82
2024/03/19 16:48:21;;;;;;;0.00;0.00;;;17.30;59.00;;;;;;5016391;28;20401;-81
2024/03/19 16:50:48;;;;;;;0.10;0.10;;;17.30;59.90;;;;;;5016363;28;20026;-81
2024/03/19 16:53:14;;;;;;;0.10;0.10;;;17.30;59.70;;;;;;5015064;28;20025;-80
2024/03/19 16:55:40;;;;;;;0.00;0.00;;;17.20;60.40;;;;;;5014655;28;20029;-82
2024/03/19 16:58:09;;;;;;;0.00;0.00;;;17.20;61.30;;;;;;5027983;28;20570;-81
2024/03/19 17:00:35;;;;;;;0.00;0.00;;;17.20;61.10;;;;;;5025260;28;20465;-81
2024/03/19 17:03:01;;;;;;;0.10;0.10;;;17.10;60.80;;;;;;5024253;28;20022;-81
2024/03/19 17:05:26;;;;;;;0.10;0.10;;;17.00;60.40;;;;;;5025807;28;20014;-82
2024/03/19 17:07:52;;;;;;;0.10;0.10;;;17.00;60.80;;;;;;5025273;28;20037;-81
2024/03/19 17:10:18;;;;;;;0.10;0.10;;;17.00;60.70;;;;;;5025245;28;20053;-80
2024/03/19 17:12:44;;;;;;;0.00;0.00;;;16.90;60.80;;;;;;5026485;28;20171;-80
2024/03/19 17:15:10;;;;;;;0.05;0.05;;;16.90;61.00;;;;;;5023367;28;20033;-79
2024/03/19 17:17:39;;;;;;;0.10;0.10;;;16.80;61.10;;;;;;5027761;28;20041;-80
2024/03/19 17:20:05;;;;;;;0.00;0.00;;;16.80;61.80;;;;;;5021425;28;20033;-80
2024/03/19 17:22:32;;;;;;;0.10;0.10;;;16.80;61.70;;;;;;5026022;28;20029;-80
2024/03/19 17:24:58;;;;;;;0.00;0.00;;;16.80;62.50;;;;;;5027750;28;20056;-80
2024/03/19 17:27:24;;;;;;;0.00;0.00;;;16.70;62.10;;;;;;5032784;28;21022;-81
2024/03/19 17:29:49;;;;;;;0.03;0.03;;;16.70;62.20;;;;;;5032949;28;20030;-80
2024/03/19 17:32:15;;;;;;;0.00;0.00;;;16.60;62.70;;;;;;5033321;28;20505;-80
2024/03/19 17:34:41;;;;;;;0.00;0.00;;;16.50;63.00;;;;;;5032218;28;20021;-80
2024/03/19 17:37:06;;;;;;;0.10;0.10;;;16.40;63.00;;;;;;5033845;28;20090;-78
2024/03/19 17:39:32;;;;;;;0.05;0.05;;;16.40;63.30;;;;;;5019647;28;20522;-84
2024/03/19 17:41:59;;;;;;;0.00;0.00;;;16.40;63.40;;;;;;5023980;28;20452;-86
2024/03/19 17:44:25;;;;;;;0.03;0.03;;;16.30;63.30;;;;;;5035011;28;20032;-83
2024/03/19 17:46:53;;;;;;;0.08;0.08;;;16.30;63.70;;;;;;5035090;28;20037;-81
2024/03/19 17:49:19;;;;;;;0.03;0.03;;;16.20;64.00;;;;;;5033249;28;20061;-85
2024/03/19 17:51:46;;;;;;;0.10;0.10;;;16.20;64.10;;;;;;5031670;28;20123;-83
2024/03/19 17:54:11;;;;;;;0.03;0.03;;;16.20;64.30;;;;;;5032487;28;20025;-82
2024/03/19 17:56:39;;;;;;;0.10;0.10;;;16.10;65.00;;;;;;5028029;28;20033;-83
2024/03/19 17:59:08;;;;;;;0.00;0.00;;;16.00;65.40;;;;;;5032988;28;20187;-81
2024/03/19 18:01:39;;;;;;;0.10;0.10;;;16.00;65.60;;;;;;5033984;28;20043;-82
2024/03/19 18:04:05;;;;;;;0.00;0.00;;;15.90;66.10;;;;;;5025302;28;20034;-80
2024/03/19 18:06:31;;;;;;;0.00;0.00;;;15.80;66.40;;;;;;5033832;28;20470;-83
2024/03/19 18:08:59;;;;;;;0.00;0.00;;;15.80;67.00;;;;;;5028951;28;20061;-78
2024/03/19 18:11:25;;;;;;;0.00;0.00;;;15.70;67.30;;;;;;5030769;28;20112;-80
2024/03/19 18:13:51;;;;;;;0.00;0.00;;;15.60;67.50;;;;;;5028814;28;20116;-76
2024/03/19 18:16:16;;;;;;;0.00;0.00;;;15.60;67.70;;;;;;5032518;28;20071;-77
2024/03/19 18:18:43;;;;;;;0.00;0.00;;;15.50;67.80;;;;;;5032135;28;20029;-75